Time;durP1;ratioP1;P1;durP2;ratioP2;P2;SDS_P1;SDS_P2;PMS_P1;PMS_P2;Temp;Humidity;BMP_temperature;BMP_pressure;BME280_temperature;BME280_humidity;BME280_pressure;Samples;Min_cycle;Max_cycle;Signal;HPM_P1;HPM_P2
2021/05/31 00:00:21;;;;;;;18.40;9.32;;;12.80;90.40;;;;;;5953945;39;20170;-69
2021/05/31 00:04:23;;;;;;;20.05;10.82;;;12.70;90.50;;;;;;5963626;39;20059;-69
2021/05/31 00:08:25;;;;;;;17.10;9.90;;;12.70;90.70;;;;;;5963231;39;20481;-69
2021/05/31 00:12:27;;;;;;;;;;;12.20;90.50;;;;;;5951055;39;20335;-69
2021/05/31 00:16:29;;;;;;;24.03;9.83;;;12.60;89.30;;;;;;5962923;39;20462;-69
2021/05/31 00:20:31;;;;;;;20.08;9.73;;;12.60;90.20;;;;;;5963698;39;20059;-69
2021/05/31 00:24:33;;;;;;;15.25;9.35;;;12.50;90.50;;;;;;5965978;39;20372;-69
2021/05/31 00:28:36;;;;;;;17.23;9.85;;;12.40;90.50;;;;;;5959433;39;20400;-70
2021/05/31 00:32:38;;;;;;;;;;;12.30;90.70;;;;;;5964086;39;20054;-69
2021/05/31 00:36:40;;;;;;;19.00;9.15;;;12.30;89.80;;;;;;5962997;39;20302;-70
2021/05/31 00:40:42;;;;;;;16.38;9.57;;;12.30;90.30;;;;;;5963676;39;20102;-69
2021/05/31 00:44:43;;;;;;;15.63;9.80;;;12.20;90.30;;;;;;5954166;39;20059;-70
2021/05/31 00:48:45;;;;;;;19.23;10.00;;;12.20;90.40;;;;;;5962724;39;20122;-69
2021/05/31 00:52:48;;;;;;;19.65;10.43;;;12.10;90.40;;;;;;5956048;39;20068;-69
2021/05/31 00:56:50;;;;;;;;;;;12.10;90.50;;;;;;5964224;39;20329;-69
2021/05/31 01:00:52;;;;;;;20.77;10.20;;;12.00;89.60;;;;;;5963449;39;19940;-69
2021/05/31 01:04:54;;;;;;;16.58;9.38;;;12.00;90.30;;;;;;5951310;39;20062;-69
2021/05/31 01:09:12;;;;;;;23.85;10.23;;;12.00;90.50;;;;;;5943830;39;20051;-68
2021/05/31 01:13:40;;;;;;;19.98;10.90;;;11.90;90.40;;;;;;5961679;39;20048;-68
2021/05/31 01:18:03;;;;;;;21.52;12.07;;;11.80;90.60;;;;;;5960406;39;20087;-68
2021/05/31 01:22:10;;;;;;;19.92;10.80;;;11.80;90.60;;;;;;5962944;39;20036;-69
2021/05/31 01:26:16;;;;;;;16.67;9.52;;;11.70;90.90;;;;;;5963076;39;20197;-70
2021/05/31 01:30:22;;;;;;;19.55;9.80;;;11.70;90.80;;;;;;5963165;39;20084;-69
2021/05/31 01:34:27;;;;;;;20.23;9.45;;;11.60;90.80;;;;;;5961469;39;20555;-69
2021/05/31 01:38:31;;;;;;;15.77;9.07;;;11.60;90.80;;;;;;5962521;39;20055;-69
2021/05/31 01:42:34;;;;;;;19.02;10.82;;;11.60;90.90;;;;;;5966312;39;20320;-69
2021/05/31 01:46:36;;;;;;;21.50;10.70;;;11.60;91.20;;;;;;5952596;39;20820;-68
2021/05/31 01:50:39;;;;;;;;;;;11.60;90.90;;;;;;5961688;39;20051;-68
2021/05/31 01:54:41;;;;;;;18.95;9.65;;;11.60;90.00;;;;;;5963767;39;19938;-68
2021/05/31 01:58:44;;;;;;;17.33;10.32;;;11.50;90.40;;;;;;5965574;39;21019;-68
2021/05/31 02:02:46;;;;;;;21.13;10.80;;;11.40;90.70;;;;;;5963935;39;20059;-68
2021/05/31 02:06:52;;;;;;;16.23;10.00;;;11.50;90.70;;;;;;5945560;39;20463;-69
2021/05/31 02:10:57;;;;;;;18.50;9.90;;;11.40;90.80;;;;;;5952239;39;20052;-69
2021/05/31 02:15:11;;;;;;;16.65;10.43;;;11.40;90.80;;;;;;5957312;39;20574;-68
2021/05/31 02:19:18;;;;;;;23.77;11.88;;;11.40;90.80;;;;;;5964927;39;20681;-69
2021/05/31 02:23:20;;;;;;;19.42;11.57;;;11.30;90.80;;;;;;5955874;39;20052;-69
2021/05/31 02:27:23;;;;;;;17.88;10.48;;;11.40;90.80;;;;;;5955976;39;20039;-69
2021/05/31 02:31:25;;;;;;;17.30;10.63;;;11.40;90.80;;;;;;5962532;39;20055;-68
2021/05/31 02:35:29;;;;;;;;;;;11.30;90.70;;;;;;5963743;39;20051;-69
2021/05/31 02:39:31;;;;;;;20.70;9.95;;;11.20;90.50;;;;;;5966481;39;20312;-69
2021/05/31 02:43:33;;;;;;;15.43;9.93;;;11.20;90.70;;;;;;5947299;39;20256;-68
2021/05/31 02:47:35;;;;;;;16.35;9.90;;;11.20;90.60;;;;;;5963343;39;20190;-69
2021/05/31 02:51:40;;;;;;;17.23;10.27;;;11.20;90.70;;;;;;5955203;39;20050;-69
2021/05/31 02:55:42;;;;;;;19.73;10.88;;;11.20;90.70;;;;;;5956852;39;20247;-69
2021/05/31 02:59:44;;;;;;;15.68;8.77;;;11.20;90.80;;;;;;5965322;39;20043;-69
2021/05/31 03:03:46;;;;;;;;;;;11.10;90.60;;;;;;5962110;39;20059;-68
2021/05/31 03:07:48;;;;;;;16.20;9.77;;;11.00;90.00;;;;;;5964246;39;19936;-68
2021/05/31 03:11:50;;;;;;;17.92;10.68;;;11.00;90.50;;;;;;5963578;39;20393;-69
2021/05/31 03:15:53;;;;;;;17.52;9.77;;;11.00;90.70;;;;;;5948428;39;20047;-69
2021/05/31 03:19:56;;;;;;;19.40;10.93;;;11.00;90.70;;;;;;5962762;39;20044;-68
2021/05/31 03:23:58;;;;;;;18.52;10.40;;;11.00;90.80;;;;;;5964569;39;20044;-69
2021/05/31 03:28:00;;;;;;;23.58;11.93;;;10.90;90.90;;;;;;5963243;39;20408;-68
2021/05/31 03:32:03;;;;;;;;;;;10.90;90.90;;;;;;5966704;39;20048;-68
2021/05/31 03:36:05;;;;;;;17.38;10.32;;;10.90;90.30;;;;;;5962389;39;19936;-69
2021/05/31 03:40:09;;;;;;;19.15;11.70;;;10.90;90.90;;;;;;5963398;39;20060;-69
2021/05/31 03:44:11;;;;;;;19.67;11.95;;;11.00;91.00;;;;;;5962954;39;20418;-69
2021/05/31 03:48:13;;;;;;;15.32;10.18;;;11.10;91.20;;;;;;5955766;39;20427;-69
2021/05/31 03:52:15;;;;;;;17.80;9.80;;;11.20;91.10;;;;;;5964092;39;20140;-70
2021/05/31 03:56:17;;;;;;;22.02;11.32;;;11.30;91.10;;;;;;5962227;39;20079;-70
2021/05/31 04:00:19;;;;;;;21.20;11.35;;;11.50;91.10;;;;;;5955742;39;20062;-69
2021/05/31 04:04:21;;;;;;;;;;;11.60;91.00;;;;;;5962834;39;20355;-70
2021/05/31 04:12:48;;;;;;;16.33;10.15;;;11.90;90.90;;;;;;5964776;39;20054;-69
2021/05/31 04:16:55;;;;;;;22.95;11.82;;;12.10;91.00;;;;;;5963718;39;20408;-69
2021/05/31 04:21:00;;;;;;;17.10;9.65;;;12.30;90.90;;;;;;5953909;39;20039;-70
2021/05/31 04:25:06;;;;;;;19.27;10.65;;;12.50;90.90;;;;;;5962554;39;20124;-70
2021/05/31 04:29:09;;;;;;;20.35;12.18;;;12.70;91.00;;;;;;5965947;39;20092;-70
2021/05/31 04:33:11;;;;;;;20.27;11.55;;;12.90;91.30;;;;;;5964087;39;20055;-70
2021/05/31 04:37:13;;;;;;;18.15;11.75;;;13.10;91.20;;;;;;5962702;39;20038;-70
2021/05/31 04:41:15;;;;;;;;;;;13.30;91.10;;;;;;5964054;39;20058;-70
2021/05/31 04:45:17;;;;;;;23.43;11.77;;;13.50;90.70;;;;;;5956360;39;19939;-69
2021/05/31 04:49:19;;;;;;;20.05;11.27;;;13.70;90.90;;;;;;5960228;39;20083;-69
2021/05/31 04:53:20;;;;;;;21.38;12.13;;;13.90;90.90;;;;;;5951222;39;20346;-70
2021/05/31 04:57:22;;;;;;;21.85;11.80;;;14.20;90.80;;;;;;5961765;39;20063;-69
2021/05/31 05:01:24;;;;;;;16.70;12.20;;;14.50;90.70;;;;;;5962869;39;20060;-70
2021/05/31 05:05:26;;;;;;;19.75;11.07;;;14.70;90.60;;;;;;5964091;39;20066;-69
2021/05/31 05:09:28;;;;;;;23.83;10.60;;;14.90;90.50;;;;;;5960908;39;20055;-70
2021/05/31 05:13:30;;;;;;;20.73;11.15;;;15.10;90.40;;;;;;5959338;39;20058;-69
2021/05/31 05:17:32;;;;;;;15.38;10.23;;;15.30;90.20;;;;;;5962220;39;20050;-69
2021/05/31 05:21:34;;;;;;;15.50;9.77;;;15.60;90.40;;;;;;5953168;39;20047;-70
2021/05/31 05:25:36;;;;;;;15.40;9.70;;;15.70;90.20;;;;;;5952016;39;20051;-70
2021/05/31 05:29:38;;;;;;;;;;;15.80;90.50;;;;;;5950315;39;20073;-70
2021/05/31 05:33:42;;;;;;;17.10;9.23;;;15.90;91.00;;;;;;5951167;39;20639;-69
2021/05/31 05:50:33;;;;;;;16.95;7.32;;;16.00;90.60;;;;;;5960434;39;20056;-69
2021/05/31 05:54:35;;;;;;;13.80;7.18;;;16.10;90.30;;;;;;5954574;39;20082;-70
2021/05/31 05:58:38;;;;;;;11.82;7.05;;;16.10;90.40;;;;;;5953135;39;20104;-70
2021/05/31 06:02:41;;;;;;;12.75;6.93;;;16.10;90.40;;;;;;5956406;39;20499;-70
2021/05/31 06:06:44;;;;;;;8.98;6.15;;;16.20;90.40;;;;;;5962736;39;20064;-70
2021/05/31 06:10:46;;;;;;;11.57;6.43;;;16.30;90.50;;;;;;5950822;39;20130;-70
2021/05/31 06:14:48;;;;;;;9.43;6.22;;;16.30;90.50;;;;;;5959976;39;20039;-70
2021/05/31 06:18:50;;;;;;;9.82;5.63;;;16.40;90.50;;;;;;5960837;39;20056;-70
2021/05/31 06:22:52;;;;;;;14.70;6.50;;;16.50;90.30;;;;;;5941495;39;20074;-70
2021/05/31 06:26:54;;;;;;;14.48;6.78;;;16.60;90.30;;;;;;5962729;39;20425;-70
2021/05/31 06:30:57;;;;;;;11.90;6.22;;;16.80;90.20;;;;;;5951628;39;20088;-70
2021/05/31 06:34:59;;;;;;;15.35;5.97;;;16.90;90.30;;;;;;5960524;39;20056;-70
2021/05/31 06:39:01;;;;;;;;;;;17.10;90.20;;;;;;5963845;39;20197;-70
2021/05/31 06:43:03;;;;;;;11.60;5.20;;;17.30;90.10;;;;;;5948369;39;19944;-70
2021/05/31 06:47:07;;;;;;;11.45;6.75;;;17.50;89.30;;;;;;5953808;39;20055;-69
2021/05/31 06:51:09;;;;;;;11.95;5.10;;;17.60;88.30;;;;;;5962737;39;20070;-69
2021/05/31 06:55:13;;;;;;;10.57;4.53;;;17.80;87.10;;;;;;5946861;39;20066;-70
2021/05/31 06:59:18;;;;;;;8.38;3.88;;;18.10;86.70;;;;;;5953890;39;20043;-70
2021/05/31 07:03:19;;;;;;;11.05;4.32;;;18.20;85.80;;;;;;5961154;39;20446;-70
2021/05/31 07:07:22;;;;;;;;;;;18.30;85.00;;;;;;5961966;39;20052;-70
2021/05/31 07:11:24;;;;;;;9.45;4.45;;;18.40;88.00;;;;;;5963619;39;19987;-70
2021/05/31 07:15:27;;;;;;;11.70;4.93;;;18.60;85.90;;;;;;5943191;39;20230;-70
2021/05/31 07:19:30;;;;;;;11.00;4.65;;;18.80;85.20;;;;;;5951451;39;20040;-69
2021/05/31 07:23:33;;;;;;;7.45;4.03;;;19.10;85.60;;;;;;5948945;39;20067;-70
2021/05/31 07:27:36;;;;;;;10.63;4.43;;;19.80;85.40;;;;;;5962663;39;20462;-70
2021/05/31 07:31:38;;;;;;;5.90;4.32;;;19.30;85.10;;;;;;5948679;39;20474;-70
2021/05/31 07:35:41;;;;;;;6.70;4.07;;;19.40;84.80;;;;;;5951264;39;20054;-70
2021/05/31 07:39:43;;;;;;;7.03;3.47;;;19.40;84.40;;;;;;5962059;39;20083;-70
2021/05/31 07:43:45;;;;;;;8.75;3.75;;;19.40;84.70;;;;;;5964606;39;20468;-69
2021/05/31 07:47:47;;;;;;;7.90;3.40;;;19.50;84.00;;;;;;5962882;39;20055;-70
2021/05/31 07:51:54;;;;;;;7.50;4.40;;;19.60;83.10;;;;;;5951719;39;20043;-69
2021/05/31 07:55:56;;;;;;;11.98;3.53;;;19.80;83.30;;;;;;5953690;39;20404;-69
2021/05/31 07:59:58;;;;;;;12.00;3.80;;;19.90;81.40;;;;;;5952255;39;20059;-69
2021/05/31 08:04:00;;;;;;;12.13;3.83;;;20.10;81.40;;;;;;5960091;39;20066;-69
2021/05/31 08:08:02;;;;;;;5.35;3.38;;;20.20;82.60;;;;;;5961818;39;20100;-70
2021/05/31 08:12:07;;;;;;;9.38;3.97;;;20.40;79.70;;;;;;5963027;39;20132;-70
2021/05/31 08:16:09;;;;;;;9.43;3.30;;;20.50;81.50;;;;;;5960108;39;20044;-69
2021/05/31 08:20:11;;;;;;;7.13;3.13;;;20.50;80.20;;;;;;5951465;39;20079;-69
2021/05/31 08:24:13;;;;;;;6.88;2.85;;;20.70;80.00;;;;;;5962412;39;20729;-69
2021/05/31 08:28:16;;;;;;;7.00;3.22;;;20.70;78.50;;;;;;5962570;39;20055;-69
2021/05/31 08:32:18;;;;;;;10.93;3.33;;;20.80;78.60;;;;;;5953324;39;20055;-70
2021/05/31 08:36:21;;;;;;;5.50;2.70;;;20.90;78.60;;;;;;5957928;39;20439;-69
2021/05/31 08:40:24;;;;;;;7.13;3.00;;;21.10;78.90;;;;;;5960465;39;20339;-69
2021/05/31 08:44:29;;;;;;;8.88;3.33;;;21.20;77.40;;;;;;5949901;39;20136;-69
2021/05/31 08:48:31;;;;;;;8.25;3.30;;;21.30;78.30;;;;;;5957944;39;20091;-69
2021/05/31 08:52:33;;;;;;;6.85;3.10;;;21.40;78.10;;;;;;5959319;39;20052;-69
2021/05/31 08:56:35;;;;;;;;;;;21.50;76.90;;;;;;5942478;39;20153;-70
2021/05/31 09:00:37;;;;;;;6.63;2.70;;;21.60;82.80;;;;;;5948157;39;19939;-68
2021/05/31 09:04:46;;;;;;;6.47;2.80;;;21.80;78.00;;;;;;5949252;39;20054;-69
2021/05/31 09:08:57;;;;;;;4.95;3.00;;;22.00;76.40;;;;;;5948200;39;20539;-69
2021/05/31 09:12:58;;;;;;;8.52;2.70;;;22.30;75.20;;;;;;5961946;39;20092;-69
2021/05/31 09:17:00;;;;;;;;;;;22.40;75.20;;;;;;5959778;39;20421;-69
2021/05/31 09:21:15;;;;;;;6.30;2.35;;;22.30;67.70;;;;;;5963527;39;19939;-69
2021/05/31 09:25:31;;;;;;;5.90;2.65;;;22.30;76.60;;;;;;5961127;39;20074;-70
2021/05/31 09:29:33;;;;;;;6.63;3.03;;;22.50;76.30;;;;;;5955877;39;20148;-69
2021/05/31 09:33:35;;;;;;;12.80;3.15;;;22.50;77.30;;;;;;5960207;39;20051;-68
2021/05/31 09:37:48;;;;;;;5.60;2.00;;;22.70;74.10;;;;;;5956743;39;20062;-69
2021/05/31 09:42:03;;;;;;;4.63;2.05;;;22.80;73.70;;;;;;5960805;39;20574;-69
2021/05/31 09:46:05;;;;;;;6.40;2.45;;;22.90;72.40;;;;;;5945580;39;20393;-69
2021/05/31 09:50:08;;;;;;;8.10;2.22;;;23.10;71.70;;;;;;5953010;39;20061;-69
2021/05/31 09:54:10;;;;;;;3.90;2.03;;;23.10;70.10;;;;;;5959842;39;20039;-69
2021/05/31 09:58:15;;;;;;;4.93;1.95;;;23.20;70.90;;;;;;5959546;39;20161;-69
2021/05/31 10:02:24;;;;;;;4.75;2.28;;;23.40;70.50;;;;;;5962795;39;20040;-69
2021/05/31 10:06:49;;;;;;;4.78;2.25;;;23.50;68.50;;;;;;5947928;39;20411;-68
2021/05/31 10:10:51;;;;;;;6.47;3.00;;;23.40;70.90;;;;;;5949350;39;20312;-69
2021/05/31 10:14:53;;;;;;;7.63;2.88;;;23.60;71.20;;;;;;5949718;39;20060;-69
2021/05/31 10:18:56;;;;;;;5.10;2.80;;;23.70;72.00;;;;;;5956571;39;20050;-70
2021/05/31 10:22:58;;;;;;;5.55;2.88;;;23.90;70.00;;;;;;5956013;39;20420;-70
2021/05/31 10:27:03;;;;;;;8.95;3.10;;;24.00;70.40;;;;;;5959092;39;20683;-69
2021/05/31 10:31:07;;;;;;;6.70;3.05;;;23.90;69.80;;;;;;5949261;39;20157;-70
2021/05/31 10:35:18;;;;;;;5.03;2.60;;;23.90;70.20;;;;;;5957298;39;20059;-70
2021/05/31 10:39:23;;;;;;;4.70;2.63;;;24.10;70.30;;;;;;5958361;39;20068;-70
2021/05/31 10:43:25;;;;;;;6.30;3.33;;;24.40;70.40;;;;;;5947879;39;20827;-70
2021/05/31 10:47:27;;;;;;;4.97;2.40;;;24.60;70.50;;;;;;5948143;39;20063;-70
2021/05/31 10:51:35;;;;;;;4.70;2.55;;;24.70;69.10;;;;;;5948131;39;20055;-70
2021/05/31 10:55:56;;;;;;;4.85;2.63;;;24.80;68.10;;;;;;5958646;39;20039;-70
2021/05/31 11:00:01;;;;;;;5.53;2.53;;;24.90;70.20;;;;;;5956541;39;20059;-70
2021/05/31 11:04:29;;;;;;;6.07;3.00;;;25.00;66.20;;;;;;5957120;39;20059;-71
2021/05/31 11:08:31;;;;;;;5.88;2.70;;;24.80;68.40;;;;;;5948472;39;20531;-70
2021/05/31 11:12:33;;;;;;;7.78;2.80;;;24.80;64.90;;;;;;5955901;39;20047;-70
2021/05/31 11:16:55;;;;;;;6.25;2.92;;;24.90;68.00;;;;;;5949143;39;20455;-71
2021/05/31 11:20:57;;;;;;;6.13;2.58;;;25.20;71.00;;;;;;5956479;39;20442;-69
2021/05/31 11:24:59;;;;;;;6.88;3.17;;;25.40;66.90;;;;;;5956593;39;20412;-69
2021/05/31 11:29:04;;;;;;;5.78;2.72;;;25.50;66.70;;;;;;5959630;39;20116;-69
2021/05/31 11:33:06;;;;;;;5.97;2.88;;;25.60;67.40;;;;;;5952369;39;20072;-70
2021/05/31 11:37:09;;;;;;;6.00;2.70;;;25.60;66.20;;;;;;5946662;39;20149;-70
2021/05/31 11:41:15;;;;;;;4.78;2.70;;;25.60;65.30;;;;;;5957705;39;20052;-69
2021/05/31 11:45:19;;;;;;;5.78;2.95;;;25.80;65.60;;;;;;5957752;39;20154;-69
2021/05/31 11:49:22;;;;;;;4.88;2.40;;;25.90;65.70;;;;;;5953985;39;20059;-70
2021/05/31 11:53:24;;;;;;;5.22;2.60;;;25.90;66.30;;;;;;5955301;39;20447;-69
2021/05/31 11:57:26;;;;;;;7.28;2.58;;;26.00;67.70;;;;;;5956542;39;20083;-70
2021/05/31 12:01:29;;;;;;;6.75;3.17;;;26.10;66.50;;;;;;5956936;39;20099;-70
2021/05/31 12:05:34;;;;;;;6.22;2.72;;;26.40;65.70;;;;;;5958598;39;20126;-70
2021/05/31 12:09:38;;;;;;;5.57;2.90;;;26.40;65.60;;;;;;5956690;39;20083;-70
2021/05/31 12:13:40;;;;;;;5.85;2.95;;;26.50;64.40;;;;;;5946383;39;20059;-69
2021/05/31 12:17:42;;;;;;;5.82;3.17;;;26.60;64.40;;;;;;5956352;39;20111;-69
2021/05/31 12:21:44;;;;;;;4.50;2.88;;;26.60;64.30;;;;;;5956921;39;20056;-70
2021/05/31 12:25:47;;;;;;;4.97;3.20;;;26.50;64.30;;;;;;5936849;39;20140;-70
2021/05/31 12:29:48;;;;;;;6.65;3.30;;;26.40;65.80;;;;;;5950364;39;20066;-69
2021/05/31 12:33:58;;;;;;;6.82;3.60;;;26.50;65.70;;;;;;5956311;39;20477;-70
2021/05/31 12:38:01;;;;;;;6.30;3.50;;;26.40;66.70;;;;;;5944747;39;20052;-69
2021/05/31 12:42:04;;;;;;;8.57;3.53;;;26.30;64.70;;;;;;5941643;39;20063;-69
2021/05/31 12:46:16;;;;;;;4.93;2.88;;;26.20;64.80;;;;;;5953072;39;20035;-69
2021/05/31 12:50:30;;;;;;;6.53;3.13;;;26.30;67.60;;;;;;5956758;39;20063;-71
2021/05/31 12:54:32;;;;;;;7.20;3.88;;;26.30;65.60;;;;;;5946426;39;20061;-69
2021/05/31 12:58:34;;;;;;;6.55;3.03;;;26.30;64.90;;;;;;5955910;39;20426;-69
2021/05/31 13:02:42;;;;;;;5.57;3.08;;;26.20;66.00;;;;;;5949215;39;20052;-69
2021/05/31 13:06:46;;;;;;;5.25;2.70;;;26.20;66.00;;;;;;5952955;39;20602;-70
2021/05/31 13:10:53;;;;;;;6.85;2.90;;;26.20;65.40;;;;;;5958525;39;20374;-70
2021/05/31 13:14:55;;;;;;;4.78;2.83;;;26.20;65.10;;;;;;5956865;39;20105;-69
2021/05/31 13:19:00;;;;;;;7.88;2.90;;;26.20;65.10;;;;;;5955087;39;20095;-70
2021/05/31 13:23:03;;;;;;;6.68;3.00;;;26.00;65.20;;;;;;5949737;39;20415;-71
2021/05/31 13:27:14;;;;;;;3.88;2.63;;;26.00;64.60;;;;;;5957224;39;20059;-70
2021/05/31 13:31:20;;;;;;;4.57;2.58;;;26.00;64.10;;;;;;5958179;39;20048;-70
2021/05/31 13:35:23;;;;;;;5.15;2.58;;;25.80;63.30;;;;;;5942972;39;20479;-71
2021/05/31 13:39:26;;;;;;;5.68;2.60;;;25.70;64.60;;;;;;5960269;39;20064;-70
2021/05/31 13:43:28;;;;;;;4.43;2.22;;;25.60;64.10;;;;;;5950140;39;20513;-70
2021/05/31 13:47:32;;;;;;;5.00;2.55;;;25.70;63.70;;;;;;5958164;39;20385;-70
2021/05/31 13:51:42;;;;;;;4.47;2.20;;;25.50;60.60;;;;;;5957044;39;20048;-69
2021/05/31 13:55:44;;;;;;;5.50;2.10;;;25.50;62.40;;;;;;5950494;39;20344;-69
2021/05/31 13:59:49;;;;;;;5.70;2.22;;;25.40;62.70;;;;;;5961203;39;20047;-69
2021/05/31 14:03:51;;;;;;;5.13;2.10;;;25.40;60.80;;;;;;5957468;39;20080;-69
2021/05/31 14:07:53;;;;;;;5.22;2.03;;;25.20;59.30;;;;;;5944993;39;20296;-69
2021/05/31 14:11:55;;;;;;;4.47;2.30;;;25.00;61.50;;;;;;5958919;39;20058;-69
2021/05/31 14:15:57;;;;;;;5.05;2.08;;;24.80;59.20;;;;;;5960144;39;20067;-69
2021/05/31 14:20:00;;;;;;;5.03;1.80;;;24.60;61.80;;;;;;5947635;39;20144;-69
2021/05/31 14:24:02;;;;;;;6.97;2.53;;;24.60;61.60;;;;;;5957499;39;20405;-69
2021/05/31 14:28:05;;;;;;;5.22;2.25;;;24.70;60.70;;;;;;5957638;39;20044;-69
2021/05/31 14:32:08;;;;;;;6.53;2.10;;;24.70;61.30;;;;;;5959353;39;20067;-69
2021/05/31 14:36:10;;;;;;;4.55;2.80;;;24.70;61.50;;;;;;5948822;39;20053;-69
2021/05/31 14:40:13;;;;;;;7.07;2.30;;;24.60;62.50;;;;;;5958372;39;20058;-69
2021/05/31 14:44:15;;;;;;;4.78;2.17;;;24.70;61.90;;;;;;5947143;39;20167;-70
2021/05/31 14:48:17;;;;;;;4.03;2.15;;;24.50;61.20;;;;;;5957184;39;20059;-69
2021/05/31 14:52:19;;;;;;;7.53;2.70;;;24.40;58.90;;;;;;5950569;39;20063;-69
2021/05/31 14:56:21;;;;;;;4.28;2.25;;;24.20;59.70;;;;;;5956510;39;20110;-69
2021/05/31 15:00:24;;;;;;;4.72;2.20;;;24.00;59.40;;;;;;5958605;39;20085;-69
2021/05/31 15:04:26;;;;;;;4.93;2.30;;;23.90;58.60;;;;;;5957226;39;20080;-69
2021/05/31 15:08:28;;;;;;;4.57;2.40;;;23.70;60.40;;;;;;5956122;39;20051;-69
2021/05/31 15:12:30;;;;;;;6.22;2.40;;;23.60;59.40;;;;;;5946589;39;20267;-69
2021/05/31 15:16:33;;;;;;;9.65;3.08;;;23.60;61.00;;;;;;5957732;39;20074;-69
2021/05/31 15:20:35;;;;;;;4.50;2.47;;;23.50;59.70;;;;;;5949242;39;20073;-71
2021/05/31 15:24:38;;;;;;;3.72;2.22;;;23.50;60.10;;;;;;5943586;39;20035;-71
2021/05/31 15:28:40;;;;;;;4.97;2.55;;;23.50;60.70;;;;;;5949217;39;20055;-71
2021/05/31 15:32:43;;;;;;;4.80;2.63;;;23.50;60.00;;;;;;5948806;39;20071;-71
2021/05/31 15:36:55;;;;;;;5.82;2.55;;;23.50;60.20;;;;;;5936309;39;20114;-71
2021/05/31 15:40:58;;;;;;;4.78;2.85;;;23.50;59.20;;;;;;5955629;39;20493;-71
2021/05/31 15:45:00;;;;;;;6.95;2.40;;;23.40;59.00;;;;;;5956888;39;20052;-71
2021/05/31 15:49:02;;;;;;;5.13;2.75;;;23.30;59.90;;;;;;5955242;39;20056;-71
2021/05/31 15:53:04;;;;;;;10.10;3.33;;;23.30;60.70;;;;;;5938812;39;20059;-71
2021/05/31 15:57:07;;;;;;;6.22;2.63;;;23.30;59.20;;;;;;5958360;39;20060;-71
2021/05/31 16:01:09;;;;;;;8.77;2.90;;;23.30;60.80;;;;;;5951544;39;20047;-71
2021/05/31 16:05:12;;;;;;;6.75;2.67;;;23.30;60.20;;;;;;5953361;39;20052;-71
2021/05/31 16:09:14;;;;;;;7.40;2.75;;;23.20;60.40;;;;;;5955163;39;20306;-68
2021/05/31 16:13:16;;;;;;;8.15;2.80;;;23.20;61.60;;;;;;5938909;39;20060;-70
2021/05/31 16:17:18;;;;;;;5.47;2.80;;;23.20;61.30;;;;;;5951210;39;20451;-71
2021/05/31 16:21:25;;;;;;;5.63;2.95;;;23.20;61.10;;;;;;5944265;39;20638;-71
2021/05/31 16:25:26;;;;;;;5.30;3.00;;;23.20;61.40;;;;;;5944452;39;20039;-71
2021/05/31 16:29:28;;;;;;;7.50;3.55;;;23.20;61.40;;;;;;5957797;39;20385;-69
2021/05/31 16:33:30;;;;;;;5.28;2.60;;;23.20;61.60;;;;;;5959617;39;20087;-68
2021/05/31 16:37:32;;;;;;;6.05;2.58;;;23.10;62.20;;;;;;5948660;39;20071;-69
2021/05/31 16:41:34;;;;;;;8.00;3.05;;;23.10;62.40;;;;;;5958154;39;20051;-69
2021/05/31 16:45:39;;;;;;;5.20;2.83;;;23.10;62.80;;;;;;5945408;39;20043;-69
2021/05/31 16:49:41;;;;;;;6.50;2.78;;;23.00;62.50;;;;;;5957368;39;20067;-69
2021/05/31 16:53:45;;;;;;;4.97;2.67;;;22.90;62.30;;;;;;5948176;39;20063;-69
2021/05/31 16:57:46;;;;;;;9.15;3.05;;;22.80;62.40;;;;;;5944489;39;20052;-69
2021/05/31 17:01:49;;;;;;;6.50;2.92;;;22.70;62.30;;;;;;5957521;39;20067;-69
2021/05/31 17:05:50;;;;;;;7.18;2.88;;;22.70;62.80;;;;;;5941718;39;20411;-69
2021/05/31 17:09:56;;;;;;;7.55;3.28;;;22.50;62.10;;;;;;5957045;39;20337;-69
2021/05/31 17:22:23;;;;;;;5.70;2.80;;;22.10;62.10;;;;;;5961627;39;20066;-69
2021/05/31 17:26:25;;;;;;;4.45;2.15;;;22.00;61.60;;;;;;5951573;39;20070;-69
2021/05/31 17:30:28;;;;;;;7.00;3.13;;;21.90;61.00;;;;;;5953377;39;20054;-70
2021/05/31 17:34:31;;;;;;;4.97;2.67;;;21.80;61.60;;;;;;5959929;39;20493;-70
2021/05/31 17:38:33;;;;;;;5.13;2.40;;;21.80;61.90;;;;;;5962838;39;20056;-70
2021/05/31 17:42:37;;;;;;;6.15;2.30;;;21.70;61.10;;;;;;5960714;39;20052;-69
2021/05/31 17:46:40;;;;;;;3.95;2.60;;;21.60;60.80;;;;;;5951409;39;20044;-70
2021/05/31 17:50:43;;;;;;;4.25;2.10;;;21.50;60.60;;;;;;5964351;39;20047;-70
2021/05/31 17:54:45;;;;;;;5.55;2.80;;;21.40;61.20;;;;;;5961804;39;20091;-70
2021/05/31 17:58:46;;;;;;;7.13;2.80;;;21.30;62.10;;;;;;5956400;39;20062;-69
2021/05/31 18:02:52;;;;;;;5.68;3.10;;;21.30;62.40;;;;;;5954159;39;20055;-69
2021/05/31 18:06:53;;;;;;;6.03;2.80;;;21.20;63.10;;;;;;5961523;39;20084;-69
2021/05/31 18:10:55;;;;;;;;;;;21.30;63.40;;;;;;5959152;39;20054;-69
2021/05/31 18:15:00;;;;;;;7.75;3.33;;;21.30;63.40;;;;;;5963160;39;19944;-69
2021/05/31 18:19:02;;;;;;;7.18;3.30;;;21.20;63.40;;;;;;5949273;39;20055;-69
2021/05/31 18:23:06;;;;;;;;;;;21.10;63.10;;;;;;5964357;39;20046;-69
2021/05/31 18:27:08;;;;;;;5.72;2.90;;;21.00;64.30;;;;;;5961236;39;20356;-69
2021/05/31 18:31:12;;;;;;;6.88;2.90;;;20.90;63.00;;;;;;5954195;39;20043;-69
2021/05/31 18:35:20;;;;;;;5.85;3.10;;;20.80;63.60;;;;;;5960063;39;20043;-69
2021/05/31 18:39:23;;;;;;;6.03;2.75;;;20.70;64.00;;;;;;5958532;39;21934;-69
2021/05/31 18:43:24;;;;;;;6.50;2.80;;;20.70;65.00;;;;;;5964115;39;20080;-69
2021/05/31 18:47:27;;;;;;;;;;;20.60;64.80;;;;;;5960114;39;20059;-76
2021/05/31 18:51:29;;;;;;;5.25;2.90;;;20.50;65.60;;;;;;5954944;39;19948;-76
2021/05/31 18:55:31;;;;;;;5.95;3.08;;;20.50;65.30;;;;;;5971791;39;20039;-79
2021/05/31 18:59:32;;;;;;;;;;;20.40;65.30;;;;;;5964563;39;20331;-76
2021/05/31 19:03:36;;;;;;;7.35;3.08;;;20.30;65.10;;;;;;5971647;39;19936;-78
2021/05/31 19:07:41;;;;;;;6.32;3.47;;;20.30;65.90;;;;;;5972359;39;20044;-77
2021/05/31 19:11:43;;;;;;;8.52;3.50;;;20.00;66.00;;;;;;5972325;39;20495;-72
2021/05/31 19:15:45;;;;;;;7.85;3.20;;;20.00;66.60;;;;;;5963805;39;20059;-71
2021/05/31 19:19:47;;;;;;;6.97;3.42;;;19.80;66.00;;;;;;5956797;39;20051;-70
2021/05/31 19:23:49;;;;;;;;;;;19.70;65.90;;;;;;5964089;39;20346;-70
2021/05/31 19:27:51;;;;;;;6.65;3.53;;;19.60;66.70;;;;;;5963690;39;20281;-70
2021/05/31 19:31:53;;;;;;;;;;;19.60;66.40;;;;;;5965909;39;20094;-70
2021/05/31 19:35:54;;;;;;;7.18;3.33;;;19.60;67.00;;;;;;5964148;39;20353;-70
2021/05/31 19:40:00;;;;;;;5.38;2.92;;;19.50;66.20;;;;;;5965853;39;20052;-70
2021/05/31 19:44:03;;;;;;;7.00;3.40;;;19.50;66.40;;;;;;5963653;39;20073;-69
2021/05/31 19:48:06;;;;;;;6.88;3.60;;;19.40;66.20;;;;;;5964233;39;20059;-70
2021/05/31 19:52:09;;;;;;;4.45;3.08;;;19.30;66.20;;;;;;5953687;39;20311;-71
2021/05/31 19:56:30;;;;;;;7.32;4.30;;;19.30;66.50;;;;;;5963852;39;20047;-70
2021/05/31 20:00:32;;;;;;;6.35;3.10;;;19.10;66.90;;;;;;5953860;39;20487;-71
2021/05/31 20:04:34;;;;;;;;;;;19.10;67.00;;;;;;5955236;39;20044;-71
2021/05/31 20:08:36;;;;;;;9.02;3.75;;;19.00;67.10;;;;;;5963431;39;19940;-70
2021/05/31 20:12:41;;;;;;;7.05;3.55;;;19.00;67.00;;;;;;5954878;39;20350;-70
2021/05/31 20:16:43;;;;;;;8.15;3.60;;;18.90;67.30;;;;;;5963252;39;20109;-70
2021/05/31 20:20:45;;;;;;;;;;;18.90;67.50;;;;;;5955146;39;20312;-71
2021/05/31 20:24:52;;;;;;;7.32;4.03;;;18.80;67.20;;;;;;5956338;39;19943;-70
2021/05/31 20:28:54;;;;;;;9.05;3.58;;;18.70;67.70;;;;;;5964802;39;20266;-70
2021/05/31 20:32:56;;;;;;;;;;;18.70;67.80;;;;;;5955092;39;20502;-70
2021/05/31 20:37:00;;;;;;;7.78;3.35;;;18.60;67.40;;;;;;5953313;39;20273;-71
2021/05/31 20:41:03;;;;;;;6.50;3.58;;;18.50;68.60;;;;;;5964746;39;20040;-71
2021/05/31 20:45:08;;;;;;;6.75;3.90;;;18.40;68.70;;;;;;5953415;39;20079;-70
2021/05/31 20:49:12;;;;;;;8.57;4.68;;;18.30;68.80;;;;;;5961136;39;20085;-71
2021/05/31 20:53:14;;;;;;;7.65;3.80;;;18.30;68.80;;;;;;5945510;39;20044;-71
2021/05/31 20:57:16;;;;;;;9.65;4.05;;;18.20;69.20;;;;;;5964761;39;20040;-71
2021/05/31 21:01:18;;;;;;;10.45;4.47;;;18.10;69.50;;;;;;5960767;39;20072;-71
2021/05/31 21:05:21;;;;;;;8.02;4.38;;;18.10;69.30;;;;;;5963381;39;20545;-72
2021/05/31 21:09:25;;;;;;;8.93;4.25;;;18.00;69.60;;;;;;5964076;39;20136;-71
2021/05/31 21:13:32;;;;;;;10.85;4.72;;;18.00;69.90;;;;;;5962696;39;20059;-72
2021/05/31 21:17:35;;;;;;;12.30;4.90;;;17.90;70.20;;;;;;5951347;39;20039;-70
2021/05/31 21:21:37;;;;;;;12.30;5.10;;;17.80;70.30;;;;;;5961887;39;20550;-70
2021/05/31 21:25:41;;;;;;;8.82;5.05;;;17.80;70.30;;;;;;5962692;39;20039;-70
2021/05/31 21:29:43;;;;;;;9.90;5.18;;;17.70;70.60;;;;;;5964124;39;20071;-70
2021/05/31 21:33:45;;;;;;;12.48;5.30;;;17.60;70.90;;;;;;5947177;39;20044;-70